sensor_id;sensor_type;location;lat;lon;timestamp;P1;durP1;ratioP1;P2;durP2;ratioP2
17361;SDS011;8798;51.938;4.348;2024-02-21T00:00:05;13.83;;;2.90;;
17361;SDS011;8798;51.938;4.348;2024-02-21T00:02:34;15.23;;;3.33;;
17361;SDS011;8798;51.938;4.348;2024-02-21T00:05:01;16.70;;;3.70;;
17361;SDS011;8798;51.938;4.348;2024-02-21T00:07:30;16.80;;;4.00;;
17361;SDS011;8798;51.938;4.348;2024-02-21T00:09:58;14.00;;;3.67;;
17361;SDS011;8798;51.938;4.348;2024-02-21T00:12:27;15.03;;;4.07;;
17361;SDS011;8798;51.938;4.348;2024-02-21T00:14:57;16.27;;;4.00;;
17361;SDS011;8798;51.938;4.348;2024-02-21T00:17:25;13.60;;;3.67;;
17361;SDS011;8798;51.938;4.348;2024-02-21T00:19:53;10.67;;;3.23;;
17361;SDS011;8798;51.938;4.348;2024-02-21T00:22:21;11.77;;;3.60;;
17361;SDS011;8798;51.938;4.348;2024-02-21T00:24:49;7.93;;;2.50;;
17361;SDS011;8798;51.938;4.348;2024-02-21T00:27:17;11.63;;;2.30;;
17361;SDS011;8798;51.938;4.348;2024-02-21T00:29:45;9.90;;;2.33;;
17361;SDS011;8798;51.938;4.348;2024-02-21T00:32:14;7.27;;;2.07;;
17361;SDS011;8798;51.938;4.348;2024-02-21T00:34:43;12.00;;;2.00;;
17361;SDS011;8798;51.938;4.348;2024-02-21T00:37:11;15.33;;;2.20;;
17361;SDS011;8798;51.938;4.348;2024-02-21T00:39:39;13.70;;;2.10;;
17361;SDS011;8798;51.938;4.348;2024-02-21T00:42:08;7.77;;;1.90;;
17361;SDS011;8798;51.938;4.348;2024-02-21T00:44:36;11.40;;;2.03;;
17361;SDS011;8798;51.938;4.348;2024-02-21T00:47:04;8.83;;;1.90;;
17361;SDS011;8798;51.938;4.348;2024-02-21T00:49:34;11.10;;;1.93;;
17361;SDS011;8798;51.938;4.348;2024-02-21T00:52:02;13.03;;;2.03;;
17361;SDS011;8798;51.938;4.348;2024-02-21T00:54:30;11.00;;;1.77;;
17361;SDS011;8798;51.938;4.348;2024-02-21T00:57:13;13.30;;;2.13;;
17361;SDS011;8798;51.938;4.348;2024-02-21T00:59:41;9.13;;;1.77;;
17361;SDS011;8798;51.938;4.348;2024-02-21T01:02:09;9.57;;;2.03;;
17361;SDS011;8798;51.938;4.348;2024-02-21T01:04:39;11.07;;;1.80;;
17361;SDS011;8798;51.938;4.348;2024-02-21T01:07:07;10.27;;;1.93;;
17361;SDS011;8798;51.938;4.348;2024-02-21T01:09:34;8.33;;;1.93;;
17361;SDS011;8798;51.938;4.348;2024-02-21T01:12:03;10.03;;;2.20;;
17361;SDS011;8798;51.938;4.348;2024-02-21T01:14:31;11.57;;;1.60;;
17361;SDS011;8798;51.938;4.348;2024-02-21T01:16:59;9.93;;;1.73;;
17361;SDS011;8798;51.938;4.348;2024-02-21T01:19:27;9.00;;;1.60;;
17361;SDS011;8798;51.938;4.348;2024-02-21T01:21:57;8.80;;;2.13;;
17361;SDS011;8798;51.938;4.348;2024-02-21T01:24:25;6.63;;;2.00;;
17361;SDS011;8798;51.938;4.348;2024-02-21T01:26:53;9.37;;;1.47;;
17361;SDS011;8798;51.938;4.348;2024-02-21T01:29:20;11.77;;;2.17;;
17361;SDS011;8798;51.938;4.348;2024-02-21T01:31:48;11.43;;;2.03;;
17361;SDS011;8798;51.938;4.348;2024-02-21T01:34:16;12.47;;;1.97;;
17361;SDS011;8798;51.938;4.348;2024-02-21T01:36:45;9.77;;;2.00;;
17361;SDS011;8798;51.938;4.348;2024-02-21T01:39:14;14.37;;;2.10;;
17361;SDS011;8798;51.938;4.348;2024-02-21T01:41:42;11.70;;;2.27;;
17361;SDS011;8798;51.938;4.348;2024-02-21T01:44:10;11.43;;;1.80;;
17361;SDS011;8798;51.938;4.348;2024-02-21T01:46:38;8.40;;;1.90;;
17361;SDS011;8798;51.938;4.348;2024-02-21T01:49:07;9.07;;;2.00;;
17361;SDS011;8798;51.938;4.348;2024-02-21T01:51:35;8.80;;;2.20;;
17361;SDS011;8798;51.938;4.348;2024-02-21T01:54:04;7.00;;;1.83;;
17361;SDS011;8798;51.938;4.348;2024-02-21T01:56:34;8.00;;;2.10;;
17361;SDS011;8798;51.938;4.348;2024-02-21T01:59:02;7.13;;;1.83;;
17361;SDS011;8798;51.938;4.348;2024-02-21T02:01:30;14.57;;;2.17;;
17361;SDS011;8798;51.938;4.348;2024-02-21T02:03:58;7.17;;;1.50;;
17361;SDS011;8798;51.938;4.348;2024-02-21T02:06:27;3.77;;;1.70;;
17361;SDS011;8798;51.938;4.348;2024-02-21T02:08:55;6.93;;;1.90;;
17361;SDS011;8798;51.938;4.348;2024-02-21T02:11:24;8.80;;;1.63;;
17361;SDS011;8798;51.938;4.348;2024-02-21T02:13:53;6.07;;;1.70;;
17361;SDS011;8798;51.938;4.348;2024-02-21T02:16:21;4.93;;;1.60;;
17361;SDS011;8798;51.938;4.348;2024-02-21T02:18:49;12.97;;;2.30;;
17361;SDS011;8798;51.938;4.348;2024-02-21T02:21:22;7.07;;;2.10;;
17361;SDS011;8798;51.938;4.348;2024-02-21T02:23:56;8.93;;;2.03;;
17361;SDS011;8798;51.938;4.348;2024-02-21T02:26:24;9.20;;;2.13;;
17361;SDS011;8798;51.938;4.348;2024-02-21T02:28:52;8.73;;;2.50;;
17361;SDS011;8798;51.938;4.348;2024-02-21T02:31:20;5.23;;;2.00;;
17361;SDS011;8798;51.938;4.348;2024-02-21T02:33:48;6.43;;;1.93;;
17361;SDS011;8798;51.938;4.348;2024-02-21T02:36:16;5.43;;;2.07;;
17361;SDS011;8798;51.938;4.348;2024-02-21T02:38:44;7.50;;;2.20;;
17361;SDS011;8798;51.938;4.348;2024-02-21T02:41:14;9.20;;;2.43;;
17361;SDS011;8798;51.938;4.348;2024-02-21T02:43:42;7.37;;;1.87;;
17361;SDS011;8798;51.938;4.348;2024-02-21T02:46:10;6.23;;;2.20;;
17361;SDS011;8798;51.938;4.348;2024-02-21T02:48:38;6.40;;;1.93;;
17361;SDS011;8798;51.938;4.348;2024-02-21T02:51:06;12.17;;;2.87;;
17361;SDS011;8798;51.938;4.348;2024-02-21T02:53:34;11.27;;;2.13;;
17361;SDS011;8798;51.938;4.348;2024-02-21T02:56:02;11.07;;;2.00;;
17361;SDS011;8798;51.938;4.348;2024-02-21T02:58:32;8.10;;;2.07;;
17361;SDS011;8798;51.938;4.348;2024-02-21T03:01:01;8.27;;;2.20;;
17361;SDS011;8798;51.938;4.348;2024-02-21T03:03:30;13.97;;;2.10;;
17361;SDS011;8798;51.938;4.348;2024-02-21T03:05:58;10.17;;;2.37;;
17361;SDS011;8798;51.938;4.348;2024-02-21T03:08:27;14.43;;;2.87;;
17361;SDS011;8798;51.938;4.348;2024-02-21T03:10:55;10.77;;;2.47;;
17361;SDS011;8798;51.938;4.348;2024-02-21T03:13:24;6.83;;;1.80;;
17361;SDS011;8798;51.938;4.348;2024-02-21T03:15:53;12.03;;;2.83;;
17361;SDS011;8798;51.938;4.348;2024-02-21T03:18:21;13.30;;;2.70;;
17361;SDS011;8798;51.938;4.348;2024-02-21T03:20:49;5.07;;;2.57;;
17361;SDS011;8798;51.938;4.348;2024-02-21T03:23:17;9.40;;;2.53;;
17361;SDS011;8798;51.938;4.348;2024-02-21T03:25:45;9.37;;;2.67;;
17361;SDS011;8798;51.938;4.348;2024-02-21T03:28:13;10.03;;;2.57;;
17361;SDS011;8798;51.938;4.348;2024-02-21T03:30:41;4.23;;;2.03;;
17361;SDS011;8798;51.938;4.348;2024-02-21T03:33:10;7.23;;;2.40;;
17361;SDS011;8798;51.938;4.348;2024-02-21T03:35:38;9.10;;;2.57;;
17361;SDS011;8798;51.938;4.348;2024-02-21T03:38:06;8.40;;;2.30;;
17361;SDS011;8798;51.938;4.348;2024-02-21T03:40:34;10.20;;;2.50;;
17361;SDS011;8798;51.938;4.348;2024-02-21T03:43:02;7.23;;;3.07;;
17361;SDS011;8798;51.938;4.348;2024-02-21T03:45:30;6.70;;;3.27;;
17361;SDS011;8798;51.938;4.348;2024-02-21T03:47:58;6.53;;;3.30;;
17361;SDS011;8798;51.938;4.348;2024-02-21T03:50:28;10.73;;;3.17;;
17361;SDS011;8798;51.938;4.348;2024-02-21T03:52:56;7.90;;;2.90;;
17361;SDS011;8798;51.938;4.348;2024-02-21T03:55:24;8.23;;;2.70;;
17361;SDS011;8798;51.938;4.348;2024-02-21T03:57:52;7.57;;;2.80;;
17361;SDS011;8798;51.938;4.348;2024-02-21T04:00:20;9.47;;;3.23;;
17361;SDS011;8798;51.938;4.348;2024-02-21T04:02:49;11.60;;;3.50;;
17361;SDS011;8798;51.938;4.348;2024-02-21T04:05:17;8.00;;;2.63;;
17361;SDS011;8798;51.938;4.348;2024-02-21T04:07:47;5.77;;;2.80;;
17361;SDS011;8798;51.938;4.348;2024-02-21T04:10:15;8.37;;;3.20;;
17361;SDS011;8798;51.938;4.348;2024-02-21T04:12:43;9.20;;;3.23;;
17361;SDS011;8798;51.938;4.348;2024-02-21T04:15:11;6.90;;;3.03;;
17361;SDS011;8798;51.938;4.348;2024-02-21T04:17:39;7.50;;;3.17;;
17361;SDS011;8798;51.938;4.348;2024-02-21T04:20:13;5.77;;;2.90;;
17361;SDS011;8798;51.938;4.348;2024-02-21T04:22:42;12.13;;;3.70;;
17361;SDS011;8798;51.938;4.348;2024-02-21T04:25:12;5.40;;;2.83;;
17361;SDS011;8798;51.938;4.348;2024-02-21T04:27:40;5.90;;;3.10;;
17361;SDS011;8798;51.938;4.348;2024-02-21T04:30:09;6.23;;;2.77;;
17361;SDS011;8798;51.938;4.348;2024-02-21T04:32:37;8.80;;;3.10;;
17361;SDS011;8798;51.938;4.348;2024-02-21T04:35:05;6.40;;;3.10;;
17361;SDS011;8798;51.938;4.348;2024-02-21T04:37:34;10.00;;;3.33;;
17361;SDS011;8798;51.938;4.348;2024-02-21T04:40:02;5.77;;;2.90;;
17361;SDS011;8798;51.938;4.348;2024-02-21T04:42:32;7.07;;;3.07;;
17361;SDS011;8798;51.938;4.348;2024-02-21T04:45:00;9.20;;;3.17;;
17361;SDS011;8798;51.938;4.348;2024-02-21T04:47:28;6.30;;;2.87;;
17361;SDS011;8798;51.938;4.348;2024-02-21T04:49:56;5.90;;;3.40;;
17361;SDS011;8798;51.938;4.348;2024-02-21T04:52:24;8.90;;;3.23;;
17361;SDS011;8798;51.938;4.348;2024-02-21T04:54:52;6.80;;;3.50;;
17361;SDS011;8798;51.938;4.348;2024-02-21T04:57:20;5.07;;;3.20;;
17361;SDS011;8798;51.938;4.348;2024-02-21T04:59:50;7.47;;;3.50;;
17361;SDS011;8798;51.938;4.348;2024-02-21T05:02:18;7.60;;;3.07;;
17361;SDS011;8798;51.938;4.348;2024-02-21T05:04:49;6.93;;;3.30;;
17361;SDS011;8798;51.938;4.348;2024-02-21T05:07:17;5.37;;;3.40;;
17361;SDS011;8798;51.938;4.348;2024-02-21T05:09:45;7.00;;;3.50;;
17361;SDS011;8798;51.938;4.348;2024-02-21T05:12:13;8.87;;;3.70;;
17361;SDS011;8798;51.938;4.348;2024-02-21T05:14:41;7.20;;;3.53;;
17361;SDS011;8798;51.938;4.348;2024-02-21T05:17:11;9.40;;;3.90;;
17361;SDS011;8798;51.938;4.348;2024-02-21T05:19:39;5.23;;;3.50;;
17361;SDS011;8798;51.938;4.348;2024-02-21T05:22:07;7.60;;;3.53;;
17361;SDS011;8798;51.938;4.348;2024-02-21T05:24:35;8.50;;;4.10;;
17361;SDS011;8798;51.938;4.348;2024-02-21T05:27:03;8.40;;;4.00;;
17361;SDS011;8798;51.938;4.348;2024-02-21T05:29:32;7.67;;;4.03;;
17361;SDS011;8798;51.938;4.348;2024-02-21T05:32:00;10.50;;;4.57;;
17361;SDS011;8798;51.938;4.348;2024-02-21T05:34:30;6.67;;;4.67;;
17361;SDS011;8798;51.938;4.348;2024-02-21T05:37:00;10.90;;;4.70;;
17361;SDS011;8798;51.938;4.348;2024-02-21T05:39:28;12.43;;;4.67;;
17361;SDS011;8798;51.938;4.348;2024-02-21T05:41:56;9.73;;;5.20;;
17361;SDS011;8798;51.938;4.348;2024-02-21T05:44:24;10.23;;;4.30;;
17361;SDS011;8798;51.938;4.348;2024-02-21T05:46:53;12.17;;;4.90;;
17361;SDS011;8798;51.938;4.348;2024-02-21T05:49:21;9.63;;;5.00;;
17361;SDS011;8798;51.938;4.348;2024-02-21T05:51:51;10.77;;;5.27;;
17361;SDS011;8798;51.938;4.348;2024-02-21T05:54:19;9.87;;;5.17;;
17361;SDS011;8798;51.938;4.348;2024-02-21T05:56:47;8.13;;;5.43;;
17361;SDS011;8798;51.938;4.348;2024-02-21T05:59:15;9.50;;;5.50;;
17361;SDS011;8798;51.938;4.348;2024-02-21T06:01:43;10.53;;;5.53;;
17361;SDS011;8798;51.938;4.348;2024-02-21T06:04:13;10.90;;;5.30;;
17361;SDS011;8798;51.938;4.348;2024-02-21T06:06:42;14.43;;;6.13;;
17361;SDS011;8798;51.938;4.348;2024-02-21T06:09:11;10.27;;;5.30;;
17361;SDS011;8798;51.938;4.348;2024-02-21T06:11:39;10.10;;;4.67;;
17361;SDS011;8798;51.938;4.348;2024-02-21T06:14:11;8.63;;;4.90;;
17361;SDS011;8798;51.938;4.348;2024-02-21T06:16:39;16.00;;;5.20;;
17361;SDS011;8798;51.938;4.348;2024-02-21T06:19:07;12.60;;;4.83;;
17361;SDS011;8798;51.938;4.348;2024-02-21T06:21:36;8.23;;;4.73;;
17361;SDS011;8798;51.938;4.348;2024-02-21T06:24:04;13.60;;;5.53;;
17361;SDS011;8798;51.938;4.348;2024-02-21T06:26:34;12.83;;;4.93;;
17361;SDS011;8798;51.938;4.348;2024-02-21T06:29:02;12.27;;;5.23;;
17361;SDS011;8798;51.938;4.348;2024-02-21T06:31:30;9.60;;;5.10;;
17361;SDS011;8798;51.938;4.348;2024-02-21T06:33:59;12.60;;;5.17;;
17361;SDS011;8798;51.938;4.348;2024-02-21T06:36:27;9.60;;;5.00;;
17361;SDS011;8798;51.938;4.348;2024-02-21T06:38:55;11.53;;;5.43;;
17361;SDS011;8798;51.938;4.348;2024-02-21T06:41:23;9.90;;;4.83;;
17361;SDS011;8798;51.938;4.348;2024-02-21T06:43:52;9.43;;;4.87;;
17361;SDS011;8798;51.938;4.348;2024-02-21T06:46:24;9.80;;;5.17;;
17361;SDS011;8798;51.938;4.348;2024-02-21T06:48:52;11.37;;;5.00;;
17361;SDS011;8798;51.938;4.348;2024-02-21T06:51:23;8.63;;;4.77;;
17361;SDS011;8798;51.938;4.348;2024-02-21T06:53:51;10.43;;;4.67;;
17361;SDS011;8798;51.938;4.348;2024-02-21T06:56:20;11.57;;;4.70;;
17361;SDS011;8798;51.938;4.348;2024-02-21T06:58:48;13.40;;;5.63;;
17361;SDS011;8798;51.938;4.348;2024-02-21T07:01:17;9.63;;;4.93;;
17361;SDS011;8798;51.938;4.348;2024-02-21T07:03:46;13.07;;;4.87;;
17361;SDS011;8798;51.938;4.348;2024-02-21T07:06:14;12.80;;;5.37;;
17361;SDS011;8798;51.938;4.348;2024-02-21T07:08:42;11.87;;;5.53;;
17361;SDS011;8798;51.938;4.348;2024-02-21T07:11:10;9.73;;;4.90;;
17361;SDS011;8798;51.938;4.348;2024-02-21T07:13:38;12.23;;;5.70;;
17361;SDS011;8798;51.938;4.348;2024-02-21T07:16:07;12.33;;;5.53;;
17361;SDS011;8798;51.938;4.348;2024-02-21T07:18:36;15.60;;;5.13;;
17361;SDS011;8798;51.938;4.348;2024-02-21T07:21:04;11.50;;;5.83;;
17361;SDS011;8798;51.938;4.348;2024-02-21T07:23:32;13.23;;;5.53;;
17361;SDS011;8798;51.938;4.348;2024-02-21T07:26:00;10.53;;;5.20;;
17361;SDS011;8798;51.938;4.348;2024-02-21T07:28:28;15.50;;;6.20;;
17361;SDS011;8798;51.938;4.348;2024-02-21T07:30:58;16.23;;;5.93;;
17361;SDS011;8798;51.938;4.348;2024-02-21T07:33:26;13.10;;;5.60;;
17361;SDS011;8798;51.938;4.348;2024-02-21T07:35:56;18.00;;;5.90;;
17361;SDS011;8798;51.938;4.348;2024-02-21T07:38:24;11.33;;;5.30;;
17361;SDS011;8798;51.938;4.348;2024-02-21T07:40:52;12.83;;;5.10;;
17361;SDS011;8798;51.938;4.348;2024-02-21T07:43:20;11.63;;;5.87;;
17361;SDS011;8798;51.938;4.348;2024-02-21T07:45:49;13.83;;;5.87;;
17361;SDS011;8798;51.938;4.348;2024-02-21T07:48:17;13.87;;;5.80;;
17361;SDS011;8798;51.938;4.348;2024-02-21T07:50:45;13.60;;;5.57;;
17361;SDS011;8798;51.938;4.348;2024-02-21T07:53:15;16.70;;;6.63;;
17361;SDS011;8798;51.938;4.348;2024-02-21T07:55:43;12.47;;;6.03;;
17361;SDS011;8798;51.938;4.348;2024-02-21T07:58:11;11.97;;;5.77;;
17361;SDS011;8798;51.938;4.348;2024-02-21T08:00:39;14.83;;;5.63;;
17361;SDS011;8798;51.938;4.348;2024-02-21T08:03:07;13.57;;;5.73;;
17361;SDS011;8798;51.938;4.348;2024-02-21T08:05:35;14.43;;;6.50;;
17361;SDS011;8798;51.938;4.348;2024-02-21T08:08:03;12.57;;;5.87;;
17361;SDS011;8798;51.938;4.348;2024-02-21T08:10:33;13.40;;;6.37;;
17361;SDS011;8798;51.938;4.348;2024-02-21T08:13:01;14.90;;;6.80;;
17361;SDS011;8798;51.938;4.348;2024-02-21T08:15:29;12.70;;;6.40;;
17361;SDS011;8798;51.938;4.348;2024-02-21T08:17:57;17.37;;;6.27;;
17361;SDS011;8798;51.938;4.348;2024-02-21T08:20:28;13.87;;;6.17;;
17361;SDS011;8798;51.938;4.348;2024-02-21T08:22:56;12.70;;;5.93;;
17361;SDS011;8798;51.938;4.348;2024-02-21T08:25:24;11.87;;;5.90;;
17361;SDS011;8798;51.938;4.348;2024-02-21T08:27:55;15.37;;;6.57;;
17361;SDS011;8798;51.938;4.348;2024-02-21T08:30:25;12.67;;;6.27;;
17361;SDS011;8798;51.938;4.348;2024-02-21T08:32:53;12.80;;;5.97;;
17361;SDS011;8798;51.938;4.348;2024-02-21T08:35:21;12.97;;;6.17;;
17361;SDS011;8798;51.938;4.348;2024-02-21T08:37:50;9.63;;;5.30;;
17361;SDS011;8798;51.938;4.348;2024-02-21T08:40:18;18.17;;;6.80;;
17361;SDS011;8798;51.938;4.348;2024-02-21T08:42:48;11.23;;;5.90;;
17361;SDS011;8798;51.938;4.348;2024-02-21T08:45:18;13.87;;;6.00;;
17361;SDS011;8798;51.938;4.348;2024-02-21T08:47:46;14.83;;;5.83;;
17361;SDS011;8798;51.938;4.348;2024-02-21T08:50:14;10.33;;;5.60;;
17361;SDS011;8798;51.938;4.348;2024-02-21T08:52:53;15.57;;;5.27;;
17361;SDS011;8798;51.938;4.348;2024-02-21T08:55:22;11.77;;;5.33;;
17361;SDS011;8798;51.938;4.348;2024-02-21T08:57:50;11.17;;;6.10;;
17361;SDS011;8798;51.938;4.348;2024-02-21T09:00:20;15.03;;;5.77;;
17361;SDS011;8798;51.938;4.348;2024-02-21T09:02:54;16.13;;;6.20;;
17361;SDS011;8798;51.938;4.348;2024-02-21T09:05:23;11.10;;;5.37;;
17361;SDS011;8798;51.938;4.348;2024-02-21T09:07:52;10.63;;;5.87;;
17361;SDS011;8798;51.938;4.348;2024-02-21T09:10:20;14.17;;;5.67;;
17361;SDS011;8798;51.938;4.348;2024-02-21T09:12:48;14.07;;;6.13;;
17361;SDS011;8798;51.938;4.348;2024-02-21T09:15:16;9.23;;;5.47;;
17361;SDS011;8798;51.938;4.348;2024-02-21T09:17:46;14.70;;;6.40;;
17361;SDS011;8798;51.938;4.348;2024-02-21T09:20:14;10.20;;;5.47;;
17361;SDS011;8798;51.938;4.348;2024-02-21T09:22:43;12.80;;;5.50;;
17361;SDS011;8798;51.938;4.348;2024-02-21T09:25:11;10.03;;;6.13;;
17361;SDS011;8798;51.938;4.348;2024-02-21T09:27:39;9.50;;;5.43;;
17361;SDS011;8798;51.938;4.348;2024-02-21T09:30:07;14.47;;;5.50;;
17361;SDS011;8798;51.938;4.348;2024-02-21T09:32:35;10.77;;;5.50;;
17361;SDS011;8798;51.938;4.348;2024-02-21T09:35:05;12.60;;;5.50;;
17361;SDS011;8798;51.938;4.348;2024-02-21T09:37:34;8.50;;;5.10;;
17361;SDS011;8798;51.938;4.348;2024-02-21T09:40:02;10.07;;;5.47;;
17361;SDS011;8798;51.938;4.348;2024-02-21T09:42:34;11.47;;;5.90;;
17361;SDS011;8798;51.938;4.348;2024-02-21T09:45:07;7.97;;;5.13;;
17361;SDS011;8798;51.938;4.348;2024-02-21T09:47:40;9.77;;;5.53;;
17361;SDS011;8798;51.938;4.348;2024-02-21T09:50:19;14.70;;;5.33;;
17361;SDS011;8798;51.938;4.348;2024-02-21T09:52:49;10.10;;;5.50;;
17361;SDS011;8798;51.938;4.348;2024-02-21T09:55:19;11.13;;;5.37;;
17361;SDS011;8798;51.938;4.348;2024-02-21T09:57:47;10.47;;;5.30;;
17361;SDS011;8798;51.938;4.348;2024-02-21T10:00:17;13.10;;;5.53;;
17361;SDS011;8798;51.938;4.348;2024-02-21T10:02:48;12.53;;;5.53;;
17361;SDS011;8798;51.938;4.348;2024-02-21T10:05:17;9.60;;;5.20;;
17361;SDS011;8798;51.938;4.348;2024-02-21T10:07:46;11.77;;;4.97;;
17361;SDS011;8798;51.938;4.348;2024-02-21T10:10:16;10.57;;;5.47;;
17361;SDS011;8798;51.938;4.348;2024-02-21T10:12:48;9.37;;;5.20;;
17361;SDS011;8798;51.938;4.348;2024-02-21T10:15:19;10.33;;;5.07;;
17361;SDS011;8798;51.938;4.348;2024-02-21T10:17:57;8.23;;;5.37;;
17361;SDS011;8798;51.938;4.348;2024-02-21T10:20:26;11.00;;;4.63;;
17361;SDS011;8798;51.938;4.348;2024-02-21T10:23:01;10.57;;;4.90;;
17361;SDS011;8798;51.938;4.348;2024-02-21T10:25:34;8.23;;;4.47;;
17361;SDS011;8798;51.938;4.348;2024-02-21T10:28:04;8.87;;;4.97;;
17361;SDS011;8798;51.938;4.348;2024-02-21T10:30:32;10.93;;;4.57;;
17361;SDS011;8798;51.938;4.348;2024-02-21T10:33:00;8.57;;;4.50;;
17361;SDS011;8798;51.938;4.348;2024-02-21T10:35:30;9.97;;;4.70;;
17361;SDS011;8798;51.938;4.348;2024-02-21T10:38:02;10.17;;;4.53;;
17361;SDS011;8798;51.938;4.348;2024-02-21T10:40:30;7.17;;;4.90;;
17361;SDS011;8798;51.938;4.348;2024-02-21T10:42:59;9.77;;;5.00;;
17361;SDS011;8798;51.938;4.348;2024-02-21T10:45:30;10.50;;;5.17;;
17361;SDS011;8798;51.938;4.348;2024-02-21T10:48:01;10.00;;;4.93;;
17361;SDS011;8798;51.938;4.348;2024-02-21T10:50:36;9.77;;;4.67;;
17361;SDS011;8798;51.938;4.348;2024-02-21T10:53:18;8.30;;;4.80;;
17361;SDS011;8798;51.938;4.348;2024-02-21T10:55:56;8.37;;;4.97;;
17361;SDS011;8798;51.938;4.348;2024-02-21T10:58:29;8.43;;;5.30;;
17361;SDS011;8798;51.938;4.348;2024-02-21T11:00:59;12.33;;;6.10;;
17361;SDS011;8798;51.938;4.348;2024-02-21T11:03:27;9.10;;;5.20;;
17361;SDS011;8798;51.938;4.348;2024-02-21T11:05:56;14.47;;;5.73;;
17361;SDS011;8798;51.938;4.348;2024-02-21T11:08:27;8.23;;;5.33;;
17361;SDS011;8798;51.938;4.348;2024-02-21T11:10:56;10.47;;;6.03;;
17361;SDS011;8798;51.938;4.348;2024-02-21T11:13:34;11.57;;;5.20;;
17361;SDS011;8798;51.938;4.348;2024-02-21T11:16:07;10.97;;;6.00;;
17361;SDS011;8798;51.938;4.348;2024-02-21T11:18:37;11.03;;;5.53;;
17361;SDS011;8798;51.938;4.348;2024-02-21T11:21:05;10.27;;;5.37;;
17361;SDS011;8798;51.938;4.348;2024-02-21T11:24:10;9.17;;;5.77;;
17361;SDS011;8798;51.938;4.348;2024-02-21T11:26:39;10.90;;;6.03;;
17361;SDS011;8798;51.938;4.348;2024-02-21T11:29:08;11.93;;;5.60;;
17361;SDS011;8798;51.938;4.348;2024-02-21T11:31:40;10.97;;;5.90;;
17361;SDS011;8798;51.938;4.348;2024-02-21T11:34:09;10.00;;;6.00;;
17361;SDS011;8798;51.938;4.348;2024-02-21T11:36:46;8.87;;;5.30;;
17361;SDS011;8798;51.938;4.348;2024-02-21T11:39:19;11.23;;;5.80;;
17361;SDS011;8798;51.938;4.348;2024-02-21T11:42:00;11.20;;;5.20;;
17361;SDS011;8798;51.938;4.348;2024-02-21T11:44:29;9.30;;;5.63;;
17361;SDS011;8798;51.938;4.348;2024-02-21T11:46:57;7.47;;;4.97;;
17361;SDS011;8798;51.938;4.348;2024-02-21T11:49:25;11.63;;;5.07;;
17361;SDS011;8798;51.938;4.348;2024-02-21T11:52:00;11.70;;;5.00;;
17361;SDS011;8798;51.938;4.348;2024-02-21T11:54:32;8.10;;;5.10;;
17361;SDS011;8798;51.938;4.348;2024-02-21T11:57:01;9.80;;;5.03;;
17361;SDS011;8798;51.938;4.348;2024-02-21T11:59:30;8.07;;;4.47;;
17361;SDS011;8798;51.938;4.348;2024-02-21T12:02:00;8.03;;;5.07;;
17361;SDS011;8798;51.938;4.348;2024-02-21T12:04:30;13.07;;;4.70;;
17361;SDS011;8798;51.938;4.348;2024-02-21T12:06:59;8.83;;;4.70;;
17361;SDS011;8798;51.938;4.348;2024-02-21T12:09:31;8.60;;;4.40;;
17361;SDS011;8798;51.938;4.348;2024-02-21T12:12:02;6.53;;;4.50;;
17361;SDS011;8798;51.938;4.348;2024-02-21T12:14:32;12.10;;;5.23;;
17361;SDS011;8798;51.938;4.348;2024-02-21T12:17:01;11.73;;;5.07;;
17361;SDS011;8798;51.938;4.348;2024-02-21T12:19:31;6.77;;;4.77;;
17361;SDS011;8798;51.938;4.348;2024-02-21T12:22:01;9.77;;;5.30;;
17361;SDS011;8798;51.938;4.348;2024-02-21T12:24:34;7.77;;;4.40;;
17361;SDS011;8798;51.938;4.348;2024-02-21T12:27:04;10.63;;;4.83;;
17361;SDS011;8798;51.938;4.348;2024-02-21T12:29:32;7.87;;;4.53;;
17361;SDS011;8798;51.938;4.348;2024-02-21T12:32:00;8.03;;;4.57;;
17361;SDS011;8798;51.938;4.348;2024-02-21T12:34:30;8.23;;;4.27;;
17361;SDS011;8798;51.938;4.348;2024-02-21T12:37:18;8.63;;;4.63;;
17361;SDS011;8798;51.938;4.348;2024-02-21T12:39:48;6.30;;;4.10;;
17361;SDS011;8798;51.938;4.348;2024-02-21T12:42:16;9.73;;;4.30;;
17361;SDS011;8798;51.938;4.348;2024-02-21T12:44:44;7.97;;;4.40;;
17361;SDS011;8798;51.938;4.348;2024-02-21T12:47:13;10.60;;;4.80;;
17361;SDS011;8798;51.938;4.348;2024-02-21T12:49:41;8.53;;;4.77;;
17361;SDS011;8798;51.938;4.348;2024-02-21T12:52:11;9.13;;;4.70;;
17361;SDS011;8798;51.938;4.348;2024-02-21T12:54:40;11.43;;;4.97;;
17361;SDS011;8798;51.938;4.348;2024-02-21T12:57:10;8.40;;;4.87;;
17361;SDS011;8798;51.938;4.348;2024-02-21T12:59:38;7.97;;;4.37;;
17361;SDS011;8798;51.938;4.348;2024-02-21T13:02:06;8.30;;;5.00;;
17361;SDS011;8798;51.938;4.348;2024-02-21T13:04:35;10.13;;;4.97;;
17361;SDS011;8798;51.938;4.348;2024-02-21T13:07:07;9.50;;;5.53;;
17361;SDS011;8798;51.938;4.348;2024-02-21T13:09:35;8.33;;;5.53;;
17361;SDS011;8798;51.938;4.348;2024-02-21T13:12:03;13.57;;;6.03;;
17361;SDS011;8798;51.938;4.348;2024-02-21T13:14:33;14.37;;;5.70;;
17361;SDS011;8798;51.938;4.348;2024-02-21T13:17:01;10.83;;;5.80;;
17361;SDS011;8798;51.938;4.348;2024-02-21T13:19:30;9.57;;;5.80;;
17361;SDS011;8798;51.938;4.348;2024-02-21T13:21:58;11.10;;;6.10;;
17361;SDS011;8798;51.938;4.348;2024-02-21T13:24:26;9.53;;;5.73;;
17361;SDS011;8798;51.938;4.348;2024-02-21T13:26:54;9.93;;;6.00;;
17361;SDS011;8798;51.938;4.348;2024-02-21T13:29:22;13.07;;;6.20;;
17361;SDS011;8798;51.938;4.348;2024-02-21T13:31:58;14.30;;;6.50;;
17361;SDS011;8798;51.938;4.348;2024-02-21T13:34:26;13.40;;;6.80;;
17361;SDS011;8798;51.938;4.348;2024-02-21T13:36:55;10.97;;;7.07;;
17361;SDS011;8798;51.938;4.348;2024-02-21T13:39:30;11.60;;;5.97;;
17361;SDS011;8798;51.938;4.348;2024-02-21T13:42:01;10.30;;;5.73;;
17361;SDS011;8798;51.938;4.348;2024-02-21T13:48:18;8.07;;;4.83;;
17361;SDS011;8798;51.938;4.348;2024-02-21T13:50:53;8.67;;;4.87;;
17361;SDS011;8798;51.938;4.348;2024-02-21T13:53:21;7.60;;;4.70;;
17361;SDS011;8798;51.938;4.348;2024-02-21T13:55:49;13.07;;;5.70;;
17361;SDS011;8798;51.938;4.348;2024-02-21T13:58:23;7.73;;;5.30;;
17361;SDS011;8798;51.938;4.348;2024-02-21T14:00:53;19.87;;;5.10;;
17361;SDS011;8798;51.938;4.348;2024-02-21T14:03:24;9.80;;;5.07;;
17361;SDS011;8798;51.938;4.348;2024-02-21T14:06:00;10.03;;;4.70;;
17361;SDS011;8798;51.938;4.348;2024-02-21T14:08:35;7.90;;;4.50;;
17361;SDS011;8798;51.938;4.348;2024-02-21T14:11:13;7.37;;;4.03;;
17361;SDS011;8798;51.938;4.348;2024-02-21T14:13:41;8.50;;;4.07;;
17361;SDS011;8798;51.938;4.348;2024-02-21T14:16:09;7.53;;;3.83;;
17361;SDS011;8798;51.938;4.348;2024-02-21T14:18:47;8.80;;;3.87;;
17361;SDS011;8798;51.938;4.348;2024-02-21T14:21:15;5.17;;;3.70;;
17361;SDS011;8798;51.938;4.348;2024-02-21T14:23:43;6.87;;;4.23;;
17361;SDS011;8798;51.938;4.348;2024-02-21T14:26:17;8.77;;;4.60;;
17361;SDS011;8798;51.938;4.348;2024-02-21T14:28:45;6.07;;;3.87;;
17361;SDS011;8798;51.938;4.348;2024-02-21T14:31:13;5.37;;;3.43;;
17361;SDS011;8798;51.938;4.348;2024-02-21T14:33:50;8.67;;;4.40;;
17361;SDS011;8798;51.938;4.348;2024-02-21T14:36:18;5.53;;;3.50;;
17361;SDS011;8798;51.938;4.348;2024-02-21T14:38:46;7.47;;;3.30;;
17361;SDS011;8798;51.938;4.348;2024-02-21T14:41:21;6.83;;;3.73;;
17361;SDS011;8798;51.938;4.348;2024-02-21T14:43:51;11.23;;;3.70;;
17361;SDS011;8798;51.938;4.348;2024-02-21T14:46:19;6.87;;;3.43;;
17361;SDS011;8798;51.938;4.348;2024-02-21T14:48:55;7.93;;;3.20;;
17361;SDS011;8798;51.938;4.348;2024-02-21T14:51:23;5.93;;;2.90;;
17361;SDS011;8798;51.938;4.348;2024-02-21T14:53:51;6.30;;;3.27;;
17361;SDS011;8798;51.938;4.348;2024-02-21T14:56:27;6.30;;;3.17;;
17361;SDS011;8798;51.938;4.348;2024-02-21T14:58:55;6.87;;;3.33;;
17361;SDS011;8798;51.938;4.348;2024-02-21T15:01:36;4.17;;;2.87;;
17361;SDS011;8798;51.938;4.348;2024-02-21T15:04:19;3.43;;;2.80;;
17361;SDS011;8798;51.938;4.348;2024-02-21T15:06:48;4.53;;;3.00;;
17361;SDS011;8798;51.938;4.348;2024-02-21T15:09:23;4.67;;;2.67;;
17361;SDS011;8798;51.938;4.348;2024-02-21T15:11:51;6.43;;;3.27;;